sensor_id;sensor_type;location;lat;lon;timestamp;P1;durP1;ratioP1;P2;durP2;ratioP2
20104;SDS011;10212;42.714;23.310;2022-08-19T00:02:35;5.97;;;5.10;;
20104;SDS011;10212;42.714;23.310;2022-08-19T00:07:36;6.43;;;5.10;;
20104;SDS011;10212;42.714;23.310;2022-08-19T00:12:37;5.93;;;5.32;;
20104;SDS011;10212;42.714;23.310;2022-08-19T00:17:38;7.40;;;5.68;;
20104;SDS011;10212;42.714;23.310;2022-08-19T00:22:39;6.85;;;5.45;;
20104;SDS011;10212;42.714;23.310;2022-08-19T00:27:41;7.30;;;5.65;;
20104;SDS011;10212;42.714;23.310;2022-08-19T00:32:42;8.75;;;5.22;;
20104;SDS011;10212;42.714;23.310;2022-08-19T00:37:42;11.98;;;5.35;;
20104;SDS011;10212;42.714;23.310;2022-08-19T00:42:43;6.43;;;5.47;;
20104;SDS011;10212;42.714;23.310;2022-08-19T00:47:44;8.25;;;5.72;;
20104;SDS011;10212;42.714;23.310;2022-08-19T00:52:46;6.10;;;5.47;;
20104;SDS011;10212;42.714;23.310;2022-08-19T00:57:55;10.30;;;6.15;;
20104;SDS011;10212;42.714;23.310;2022-08-19T01:02:58;8.52;;;5.38;;
20104;SDS011;10212;42.714;23.310;2022-08-19T01:07:59;6.65;;;5.25;;
20104;SDS011;10212;42.714;23.310;2022-08-19T01:13:03;7.72;;;5.80;;
20104;SDS011;10212;42.714;23.310;2022-08-19T01:18:06;7.95;;;5.97;;
20104;SDS011;10212;42.714;23.310;2022-08-19T01:23:09;6.50;;;5.82;;
20104;SDS011;10212;42.714;23.310;2022-08-19T01:28:20;8.85;;;6.53;;
20104;SDS011;10212;42.714;23.310;2022-08-19T01:33:28;8.95;;;6.47;;
20104;SDS011;10212;42.714;23.310;2022-08-19T01:38:30;7.00;;;6.15;;
20104;SDS011;10212;42.714;23.310;2022-08-19T01:43:35;6.75;;;6.10;;
20104;SDS011;10212;42.714;23.310;2022-08-19T01:48:37;9.05;;;6.82;;
20104;SDS011;10212;42.714;23.310;2022-08-19T01:53:40;11.73;;;6.82;;
20104;SDS011;10212;42.714;23.310;2022-08-19T01:58:42;8.00;;;6.82;;
20104;SDS011;10212;42.714;23.310;2022-08-19T02:03:55;10.07;;;6.75;;
20104;SDS011;10212;42.714;23.310;2022-08-19T02:08:56;8.00;;;6.43;;
20104;SDS011;10212;42.714;23.310;2022-08-19T02:13:57;8.93;;;6.63;;
20104;SDS011;10212;42.714;23.310;2022-08-19T02:18:59;9.88;;;7.60;;
20104;SDS011;10212;42.714;23.310;2022-08-19T02:24:02;8.15;;;7.32;;
20104;SDS011;10212;42.714;23.310;2022-08-19T02:29:03;10.05;;;8.30;;
20104;SDS011;10212;42.714;23.310;2022-08-19T02:34:04;9.65;;;8.00;;
20104;SDS011;10212;42.714;23.310;2022-08-19T02:39:05;12.13;;;8.13;;
20104;SDS011;10212;42.714;23.310;2022-08-19T02:44:06;14.68;;;12.93;;
20104;SDS011;10212;42.714;23.310;2022-08-19T02:49:07;13.73;;;10.55;;
20104;SDS011;10212;42.714;23.310;2022-08-19T02:54:09;10.63;;;8.93;;
20104;SDS011;10212;42.714;23.310;2022-08-19T02:59:10;9.70;;;8.70;;
20104;SDS011;10212;42.714;23.310;2022-08-19T03:04:12;9.27;;;8.02;;
20104;SDS011;10212;42.714;23.310;2022-08-19T03:09:14;10.00;;;8.20;;
20104;SDS011;10212;42.714;23.310;2022-08-19T03:14:16;9.50;;;8.50;;
20104;SDS011;10212;42.714;23.310;2022-08-19T03:19:18;9.10;;;8.20;;
20104;SDS011;10212;42.714;23.310;2022-08-19T03:24:21;10.45;;;7.85;;
20104;SDS011;10212;42.714;23.310;2022-08-19T03:29:21;13.05;;;8.27;;
20104;SDS011;10212;42.714;23.310;2022-08-19T03:34:23;9.60;;;8.13;;
20104;SDS011;10212;42.714;23.310;2022-08-19T03:39:28;11.40;;;9.27;;
20104;SDS011;10212;42.714;23.310;2022-08-19T03:44:29;11.50;;;8.82;;
20104;SDS011;10212;42.714;23.310;2022-08-19T03:49:31;15.55;;;9.50;;
20104;SDS011;10212;42.714;23.310;2022-08-19T03:54:35;11.85;;;10.10;;
20104;SDS011;10212;42.714;23.310;2022-08-19T03:59:36;10.93;;;9.70;;
20104;SDS011;10212;42.714;23.310;2022-08-19T04:04:38;15.10;;;9.40;;
20104;SDS011;10212;42.714;23.310;2022-08-19T04:09:40;13.88;;;10.00;;
20104;SDS011;10212;42.714;23.310;2022-08-19T04:14:41;13.00;;;9.80;;
20104;SDS011;10212;42.714;23.310;2022-08-19T04:19:41;13.55;;;9.85;;
20104;SDS011;10212;42.714;23.310;2022-08-19T04:24:43;14.25;;;9.57;;
20104;SDS011;10212;42.714;23.310;2022-08-19T04:29:43;11.98;;;9.80;;
20104;SDS011;10212;42.714;23.310;2022-08-19T04:34:44;12.55;;;9.82;;
20104;SDS011;10212;42.714;23.310;2022-08-19T04:39:44;17.00;;;12.65;;
20104;SDS011;10212;42.714;23.310;2022-08-19T04:45:08;12.32;;;9.10;;
20104;SDS011;10212;42.714;23.310;2022-08-19T04:50:10;16.00;;;9.65;;
20104;SDS011;10212;42.714;23.310;2022-08-19T04:55:11;14.60;;;10.07;;
20104;SDS011;10212;42.714;23.310;2022-08-19T05:00:13;17.27;;;11.05;;
20104;SDS011;10212;42.714;23.310;2022-08-19T05:05:14;18.42;;;10.52;;
20104;SDS011;10212;42.714;23.310;2022-08-19T05:10:14;26.25;;;12.20;;
20104;SDS011;10212;42.714;23.310;2022-08-19T05:15:15;18.73;;;11.88;;
20104;SDS011;10212;42.714;23.310;2022-08-19T05:20:15;17.65;;;11.55;;
20104;SDS011;10212;42.714;23.310;2022-08-19T05:25:35;19.60;;;12.27;;
20104;SDS011;10212;42.714;23.310;2022-08-19T05:30:39;24.08;;;14.90;;
20104;SDS011;10212;42.714;23.310;2022-08-19T05:35:40;16.48;;;12.85;;
20104;SDS011;10212;42.714;23.310;2022-08-19T05:40:41;24.45;;;19.30;;
20104;SDS011;10212;42.714;23.310;2022-08-19T05:45:45;19.17;;;14.07;;
20104;SDS011;10212;42.714;23.310;2022-08-19T05:50:46;21.48;;;13.75;;
20104;SDS011;10212;42.714;23.310;2022-08-19T05:55:48;17.83;;;13.88;;
20104;SDS011;10212;42.714;23.310;2022-08-19T06:00:49;15.80;;;13.70;;
20104;SDS011;10212;42.714;23.310;2022-08-19T06:05:50;22.08;;;15.57;;
20104;SDS011;10212;42.714;23.310;2022-08-19T06:10:50;20.33;;;15.50;;
20104;SDS011;10212;42.714;23.310;2022-08-19T06:15:51;18.00;;;13.20;;
20104;SDS011;10212;42.714;23.310;2022-08-19T06:20:51;21.30;;;13.20;;
20104;SDS011;10212;42.714;23.310;2022-08-19T06:25:52;14.55;;;10.43;;
20104;SDS011;10212;42.714;23.310;2022-08-19T06:30:52;14.67;;;10.07;;
20104;SDS011;10212;42.714;23.310;2022-08-19T06:35:53;14.10;;;9.88;;
20104;SDS011;10212;42.714;23.310;2022-08-19T06:41:03;17.52;;;11.55;;
20104;SDS011;10212;42.714;23.310;2022-08-19T06:46:08;16.60;;;10.10;;
20104;SDS011;10212;42.714;23.310;2022-08-19T06:51:12;19.77;;;10.88;;
20104;SDS011;10212;42.714;23.310;2022-08-19T06:56:20;18.95;;;11.25;;
20104;SDS011;10212;42.714;23.310;2022-08-19T07:01:23;17.17;;;10.73;;
20104;SDS011;10212;42.714;23.310;2022-08-19T07:06:23;15.93;;;9.85;;
20104;SDS011;10212;42.714;23.310;2022-08-19T07:11:24;17.45;;;10.23;;
20104;SDS011;10212;42.714;23.310;2022-08-19T07:16:25;17.60;;;8.85;;
20104;SDS011;10212;42.714;23.310;2022-08-19T07:21:35;15.18;;;9.48;;
20104;SDS011;10212;42.714;23.310;2022-08-19T07:26:40;20.13;;;9.40;;
20104;SDS011;10212;42.714;23.310;2022-08-19T07:31:42;13.88;;;8.95;;
20104;SDS011;10212;42.714;23.310;2022-08-19T07:36:43;15.98;;;8.95;;
20104;SDS011;10212;42.714;23.310;2022-08-19T07:41:43;13.63;;;8.48;;
20104;SDS011;10212;42.714;23.310;2022-08-19T07:46:45;17.10;;;8.75;;
20104;SDS011;10212;42.714;23.310;2022-08-19T07:57:01;14.73;;;8.25;;
20104;SDS011;10212;42.714;23.310;2022-08-19T08:02:02;17.65;;;9.13;;
20104;SDS011;10212;42.714;23.310;2022-08-19T08:07:03;12.27;;;7.22;;
20104;SDS011;10212;42.714;23.310;2022-08-19T08:12:29;15.02;;;7.75;;
20104;SDS011;10212;42.714;23.310;2022-08-19T08:17:33;18.15;;;8.82;;
20104;SDS011;10212;42.714;23.310;2022-08-19T08:22:34;23.25;;;15.82;;
20104;SDS011;10212;42.714;23.310;2022-08-19T08:27:53;17.83;;;7.60;;
20104;SDS011;10212;42.714;23.310;2022-08-19T08:32:55;14.00;;;7.57;;
20104;SDS011;10212;42.714;23.310;2022-08-19T08:37:56;15.00;;;6.82;;
20104;SDS011;10212;42.714;23.310;2022-08-19T08:43:07;12.02;;;7.25;;
20104;SDS011;10212;42.714;23.310;2022-08-19T08:48:18;14.45;;;6.70;;
20104;SDS011;10212;42.714;23.310;2022-08-19T08:53:22;12.82;;;5.95;;
20104;SDS011;10212;42.714;23.310;2022-08-19T08:58:26;18.77;;;6.03;;
20104;SDS011;10212;42.714;23.310;2022-08-19T09:03:40;14.60;;;12.35;;
20104;SDS011;10212;42.714;23.310;2022-08-19T09:08:45;9.93;;;5.10;;
20104;SDS011;10212;42.714;23.310;2022-08-19T09:19:01;13.35;;;6.68;;
20104;SDS011;10212;42.714;23.310;2022-08-19T09:24:04;7.88;;;5.85;;
20104;SDS011;10212;42.714;23.310;2022-08-19T09:29:05;6.00;;;4.40;;
20104;SDS011;10212;42.714;23.310;2022-08-19T09:34:06;7.40;;;4.75;;
20104;SDS011;10212;42.714;23.310;2022-08-19T09:39:08;14.10;;;5.13;;
20104;SDS011;10212;42.714;23.310;2022-08-19T09:44:08;6.22;;;4.65;;
20104;SDS011;10212;42.714;23.310;2022-08-19T09:49:11;8.73;;;4.33;;
20104;SDS011;10212;42.714;23.310;2022-08-19T09:54:11;6.00;;;4.23;;
20104;SDS011;10212;42.714;23.310;2022-08-19T09:59:12;6.53;;;4.38;;
20104;SDS011;10212;42.714;23.310;2022-08-19T10:04:14;6.53;;;4.20;;
20104;SDS011;10212;42.714;23.310;2022-08-19T10:09:16;14.63;;;13.15;;
20104;SDS011;10212;42.714;23.310;2022-08-19T10:14:17;6.68;;;4.40;;
20104;SDS011;10212;42.714;23.310;2022-08-19T10:19:22;10.02;;;5.15;;
20104;SDS011;10212;42.714;23.310;2022-08-19T10:24:22;4.85;;;4.40;;
20104;SDS011;10212;42.714;23.310;2022-08-19T10:29:24;10.77;;;7.70;;
20104;SDS011;10212;42.714;23.310;2022-08-19T10:34:25;9.32;;;6.82;;
20104;SDS011;10212;42.714;23.310;2022-08-19T10:39:26;5.97;;;4.63;;
20104;SDS011;10212;42.714;23.310;2022-08-19T10:44:29;6.03;;;4.60;;
20104;SDS011;10212;42.714;23.310;2022-08-19T10:49:30;7.25;;;6.35;;
20104;SDS011;10212;42.714;23.310;2022-08-19T10:54:32;7.43;;;5.00;;
20104;SDS011;10212;42.714;23.310;2022-08-19T10:59:52;9.10;;;4.85;;
20104;SDS011;10212;42.714;23.310;2022-08-19T11:04:53;5.30;;;4.80;;
20104;SDS011;10212;42.714;23.310;2022-08-19T11:09:53;8.75;;;4.95;;
20104;SDS011;10212;42.714;23.310;2022-08-19T11:14:54;8.68;;;5.30;;
20104;SDS011;10212;42.714;23.310;2022-08-19T11:19:54;9.23;;;5.15;;
20104;SDS011;10212;42.714;23.310;2022-08-19T11:24:55;5.60;;;5.10;;
20104;SDS011;10212;42.714;23.310;2022-08-19T11:29:55;7.32;;;4.82;;
20104;SDS011;10212;42.714;23.310;2022-08-19T11:34:56;5.73;;;4.80;;
20104;SDS011;10212;42.714;23.310;2022-08-19T11:39:56;9.20;;;4.90;;
20104;SDS011;10212;42.714;23.310;2022-08-19T11:44:57;8.10;;;5.35;;
20104;SDS011;10212;42.714;23.310;2022-08-19T11:49:58;11.05;;;8.20;;
20104;SDS011;10212;42.714;23.310;2022-08-19T11:54:59;5.35;;;4.85;;
20104;SDS011;10212;42.714;23.310;2022-08-19T11:59:59;6.80;;;5.07;;
20104;SDS011;10212;42.714;23.310;2022-08-19T12:04:59;10.00;;;5.00;;
20104;SDS011;10212;42.714;23.310;2022-08-19T12:10:03;11.13;;;5.07;;
20104;SDS011;10212;42.714;23.310;2022-08-19T12:15:04;8.63;;;5.20;;
20104;SDS011;10212;42.714;23.310;2022-08-19T12:20:05;8.40;;;4.93;;
20104;SDS011;10212;42.714;23.310;2022-08-19T12:25:08;6.55;;;4.38;;
20104;SDS011;10212;42.714;23.310;2022-08-19T12:35:11;6.35;;;5.45;;
20104;SDS011;10212;42.714;23.310;2022-08-19T12:40:13;9.20;;;4.30;;
20104;SDS011;10212;42.714;23.310;2022-08-19T12:45:15;7.13;;;5.13;;
20104;SDS011;10212;42.714;23.310;2022-08-19T12:50:15;6.53;;;5.05;;
20104;SDS011;10212;42.714;23.310;2022-08-19T12:55:16;7.17;;;5.03;;
20104;SDS011;10212;42.714;23.310;2022-08-19T13:05:25;5.88;;;4.55;;
20104;SDS011;10212;42.714;23.310;2022-08-19T13:10:31;9.52;;;5.25;;
20104;SDS011;10212;42.714;23.310;2022-08-19T13:15:37;6.38;;;4.97;;
20104;SDS011;10212;42.714;23.310;2022-08-19T13:20:44;5.97;;;4.72;;
20104;SDS011;10212;42.714;23.310;2022-08-19T13:25:53;6.95;;;4.95;;
20104;SDS011;10212;42.714;23.310;2022-08-19T13:30:55;8.70;;;4.85;;
20104;SDS011;10212;42.714;23.310;2022-08-19T13:36:15;5.78;;;4.80;;
20104;SDS011;10212;42.714;23.310;2022-08-19T13:41:15;7.70;;;4.88;;
20104;SDS011;10212;42.714;23.310;2022-08-19T13:46:15;9.87;;;5.07;;
20104;SDS011;10212;42.714;23.310;2022-08-19T13:51:17;8.13;;;4.90;;
20104;SDS011;10212;42.714;23.310;2022-08-19T13:56:18;7.27;;;5.60;;
20104;SDS011;10212;42.714;23.310;2022-08-19T14:01:22;9.27;;;5.68;;
20104;SDS011;10212;42.714;23.310;2022-08-19T14:06:23;10.50;;;5.05;;
20104;SDS011;10212;42.714;23.310;2022-08-19T14:11:25;9.77;;;7.07;;
20104;SDS011;10212;42.714;23.310;2022-08-19T14:16:26;9.40;;;5.40;;
20104;SDS011;10212;42.714;23.310;2022-08-19T14:21:27;7.60;;;4.75;;
20104;SDS011;10212;42.714;23.310;2022-08-19T14:26:27;6.80;;;6.18;;
20104;SDS011;10212;42.714;23.310;2022-08-19T14:31:28;6.93;;;5.07;;
20104;SDS011;10212;42.714;23.310;2022-08-19T14:36:29;8.70;;;5.33;;
20104;SDS011;10212;42.714;23.310;2022-08-19T14:41:30;8.65;;;5.25;;
20104;SDS011;10212;42.714;23.310;2022-08-19T14:46:31;9.23;;;4.90;;
20104;SDS011;10212;42.714;23.310;2022-08-19T14:51:31;9.57;;;5.60;;
20104;SDS011;10212;42.714;23.310;2022-08-19T14:56:32;6.60;;;5.25;;
20104;SDS011;10212;42.714;23.310;2022-08-19T15:01:33;10.75;;;5.20;;
20104;SDS011;10212;42.714;23.310;2022-08-19T15:06:34;8.65;;;5.68;;
20104;SDS011;10212;42.714;23.310;2022-08-19T15:11:34;7.60;;;5.60;;
20104;SDS011;10212;42.714;23.310;2022-08-19T15:21:40;7.97;;;5.53;;
20104;SDS011;10212;42.714;23.310;2022-08-19T15:26:40;6.70;;;5.72;;
20104;SDS011;10212;42.714;23.310;2022-08-19T15:31:42;11.03;;;5.90;;
20104;SDS011;10212;42.714;23.310;2022-08-19T15:36:43;10.80;;;6.35;;
20104;SDS011;10212;42.714;23.310;2022-08-19T15:41:44;8.23;;;6.55;;
20104;SDS011;10212;42.714;23.310;2022-08-19T15:46:45;12.20;;;6.38;;
20104;SDS011;10212;42.714;23.310;2022-08-19T15:51:48;11.57;;;6.13;;
20104;SDS011;10212;42.714;23.310;2022-08-19T15:56:49;11.33;;;6.63;;
20104;SDS011;10212;42.714;23.310;2022-08-19T16:02:09;9.52;;;6.28;;
20104;SDS011;10212;42.714;23.310;2022-08-19T16:07:28;12.60;;;6.90;;
20104;SDS011;10212;42.714;23.310;2022-08-19T16:12:29;8.75;;;5.80;;
20104;SDS011;10212;42.714;23.310;2022-08-19T16:17:30;17.30;;;9.10;;
20104;SDS011;10212;42.714;23.310;2022-08-19T16:22:31;12.48;;;7.55;;
20104;SDS011;10212;42.714;23.310;2022-08-19T16:27:32;8.38;;;6.30;;
20104;SDS011;10212;42.714;23.310;2022-08-19T16:32:33;9.90;;;5.95;;
20104;SDS011;10212;42.714;23.310;2022-08-19T16:37:33;10.68;;;7.78;;
20104;SDS011;10212;42.714;23.310;2022-08-19T16:42:34;11.37;;;5.87;;
20104;SDS011;10212;42.714;23.310;2022-08-19T16:47:35;25.92;;;6.80;;
20104;SDS011;10212;42.714;23.310;2022-08-19T16:52:36;8.85;;;5.75;;
20104;SDS011;10212;42.714;23.310;2022-08-19T16:57:37;13.23;;;7.75;;
20104;SDS011;10212;42.714;23.310;2022-08-19T17:02:38;8.85;;;6.03;;
20104;SDS011;10212;42.714;23.310;2022-08-19T17:07:38;10.63;;;5.70;;
20104;SDS011;10212;42.714;23.310;2022-08-19T17:12:39;7.37;;;6.17;;
20104;SDS011;10212;42.714;23.310;2022-08-19T17:17:39;11.32;;;8.00;;
20104;SDS011;10212;42.714;23.310;2022-08-19T17:22:40;10.00;;;7.68;;
20104;SDS011;10212;42.714;23.310;2022-08-19T17:27:41;12.90;;;7.35;;
20104;SDS011;10212;42.714;23.310;2022-08-19T17:32:41;9.52;;;7.50;;
20104;SDS011;10212;42.714;23.310;2022-08-19T17:37:42;10.55;;;6.88;;
20104;SDS011;10212;42.714;23.310;2022-08-19T17:42:43;13.02;;;7.68;;
20104;SDS011;10212;42.714;23.310;2022-08-19T17:47:44;10.98;;;7.97;;
20104;SDS011;10212;42.714;23.310;2022-08-19T17:52:44;9.55;;;6.57;;
20104;SDS011;10212;42.714;23.310;2022-08-19T17:57:45;10.73;;;6.90;;
20104;SDS011;10212;42.714;23.310;2022-08-19T18:02:47;11.25;;;8.20;;
20104;SDS011;10212;42.714;23.310;2022-08-19T18:07:52;12.18;;;8.40;;
20104;SDS011;10212;42.714;23.310;2022-08-19T18:12:53;13.43;;;8.10;;
20104;SDS011;10212;42.714;23.310;2022-08-19T18:17:54;14.57;;;8.60;;
20104;SDS011;10212;42.714;23.310;2022-08-19T18:22:55;16.90;;;8.87;;
20104;SDS011;10212;42.714;23.310;2022-08-19T18:27:57;14.32;;;9.70;;
20104;SDS011;10212;42.714;23.310;2022-08-19T18:38:01;13.00;;;8.05;;
20104;SDS011;10212;42.714;23.310;2022-08-19T18:43:21;16.02;;;9.80;;
20104;SDS011;10212;42.714;23.310;2022-08-19T18:48:22;13.30;;;8.85;;
20104;SDS011;10212;42.714;23.310;2022-08-19T18:53:42;14.02;;;8.77;;
20104;SDS011;10212;42.714;23.310;2022-08-19T18:58:45;14.90;;;9.82;;
20104;SDS011;10212;42.714;23.310;2022-08-19T19:03:47;15.50;;;9.77;;
20104;SDS011;10212;42.714;23.310;2022-08-19T19:08:52;15.25;;;11.00;;
20104;SDS011;10212;42.714;23.310;2022-08-19T19:13:53;19.83;;;12.18;;
20104;SDS011;10212;42.714;23.310;2022-08-19T19:18:54;17.35;;;11.85;;
20104;SDS011;10212;42.714;23.310;2022-08-19T19:23:55;16.77;;;12.35;;
20104;SDS011;10212;42.714;23.310;2022-08-19T19:28:56;18.83;;;10.80;;
20104;SDS011;10212;42.714;23.310;2022-08-19T19:33:57;15.63;;;11.68;;
20104;SDS011;10212;42.714;23.310;2022-08-19T19:38:58;17.08;;;12.05;;
20104;SDS011;10212;42.714;23.310;2022-08-19T19:43:59;16.35;;;10.82;;
20104;SDS011;10212;42.714;23.310;2022-08-19T19:49:00;14.40;;;10.02;;
20104;SDS011;10212;42.714;23.310;2022-08-19T19:54:01;17.35;;;9.57;;
20104;SDS011;10212;42.714;23.310;2022-08-19T19:59:02;16.33;;;9.15;;
20104;SDS011;10212;42.714;23.310;2022-08-19T20:04:03;13.27;;;9.23;;
20104;SDS011;10212;42.714;23.310;2022-08-19T20:09:03;18.60;;;9.80;;
20104;SDS011;10212;42.714;23.310;2022-08-19T20:19:14;17.08;;;9.90;;
20104;SDS011;10212;42.714;23.310;2022-08-19T20:24:20;13.88;;;9.13;;
20104;SDS011;10212;42.714;23.310;2022-08-19T20:29:23;17.05;;;9.60;;
20104;SDS011;10212;42.714;23.310;2022-08-19T20:34:24;21.60;;;10.60;;
20104;SDS011;10212;42.714;23.310;2022-08-19T20:39:25;18.73;;;9.68;;
20104;SDS011;10212;42.714;23.310;2022-08-19T20:44:25;18.42;;;10.00;;
20104;SDS011;10212;42.714;23.310;2022-08-19T20:49:26;17.35;;;9.25;;
20104;SDS011;10212;42.714;23.310;2022-08-19T20:54:27;15.63;;;9.30;;
20104;SDS011;10212;42.714;23.310;2022-08-19T20:59:27;12.88;;;8.80;;
20104;SDS011;10212;42.714;23.310;2022-08-19T21:04:28;11.05;;;8.45;;
20104;SDS011;10212;42.714;23.310;2022-08-19T21:09:28;13.25;;;8.65;;
20104;SDS011;10212;42.714;23.310;2022-08-19T21:14:29;12.70;;;9.02;;
20104;SDS011;10212;42.714;23.310;2022-08-19T21:19:30;12.88;;;9.30;;
20104;SDS011;10212;42.714;23.310;2022-08-19T21:24:30;14.05;;;7.88;;
20104;SDS011;10212;42.714;23.310;2022-08-19T21:29:31;13.60;;;8.07;;
20104;SDS011;10212;42.714;23.310;2022-08-19T21:34:35;10.45;;;7.90;;
20104;SDS011;10212;42.714;23.310;2022-08-19T21:39:36;9.30;;;8.27;;
20104;SDS011;10212;42.714;23.310;2022-08-19T21:44:37;12.75;;;7.18;;
20104;SDS011;10212;42.714;23.310;2022-08-19T21:49:39;12.70;;;7.78;;
20104;SDS011;10212;42.714;23.310;2022-08-19T21:54:39;9.93;;;7.07;;
20104;SDS011;10212;42.714;23.310;2022-08-19T21:59:41;8.85;;;6.55;;
20104;SDS011;10212;42.714;23.310;2022-08-19T22:04:41;11.50;;;7.30;;
20104;SDS011;10212;42.714;23.310;2022-08-19T22:09:43;9.20;;;6.97;;
20104;SDS011;10212;42.714;23.310;2022-08-19T22:14:45;9.77;;;6.78;;
20104;SDS011;10212;42.714;23.310;2022-08-19T22:19:45;9.60;;;6.60;;
20104;SDS011;10212;42.714;23.310;2022-08-19T22:24:46;9.77;;;6.30;;
20104;SDS011;10212;42.714;23.310;2022-08-19T22:29:46;8.75;;;6.55;;
20104;SDS011;10212;42.714;23.310;2022-08-19T22:34:47;13.52;;;7.07;;
20104;SDS011;10212;42.714;23.310;2022-08-19T22:39:47;7.30;;;6.40;;
20104;SDS011;10212;42.714;23.310;2022-08-19T22:44:48;9.63;;;6.82;;
20104;SDS011;10212;42.714;23.310;2022-08-19T22:49:49;11.93;;;6.75;;
20104;SDS011;10212;42.714;23.310;2022-08-19T22:54:51;10.63;;;6.95;;
20104;SDS011;10212;42.714;23.310;2022-08-19T22:59:55;8.48;;;6.88;;
20104;SDS011;10212;42.714;23.310;2022-08-19T23:04:59;7.95;;;6.85;;
20104;SDS011;10212;42.714;23.310;2022-08-19T23:10:03;9.27;;;6.93;;
20104;SDS011;10212;42.714;23.310;2022-08-19T23:15:10;11.20;;;6.70;;
20104;SDS011;10212;42.714;23.310;2022-08-19T23:20:25;8.70;;;7.15;;
20104;SDS011;10212;42.714;23.310;2022-08-19T23:25:29;9.10;;;7.35;;
20104;SDS011;10212;42.714;23.310;2022-08-19T23:30:31;11.02;;;6.82;;
20104;SDS011;10212;42.714;23.310;2022-08-19T23:35:34;9.90;;;6.88;;
20104;SDS011;10212;42.714;23.310;2022-08-19T23:40:36;10.23;;;6.60;;
20104;SDS011;10212;42.714;23.310;2022-08-19T23:45:38;14.05;;;6.95;;
20104;SDS011;10212;42.714;23.310;2022-08-19T23:50:40;8.25;;;6.50;;
20104;SDS011;10212;42.714;23.310;2022-08-19T23:55:43;9.98;;;6.75;;
